Time;durP1;ratioP1;P1;durP2;ratioP2;P2;SDS_P1;SDS_P2;PMS_P1;PMS_P2;Temp;Humidity;BMP_temperature;BMP_pressure;BME280_temperature;BME280_humidity;BME280_pressure;Samples;Min_cycle;Max_cycle;Signal;HPM_P1;HPM_P2
2021/10/05 00:01:21;;;;;;;18.37;13.15;;;;;;;10.39;74.72;97477.86;1713774;83;26294;-89
2021/10/05 00:03:47;;;;;;;17.57;12.60;;;;;;;10.38;74.78;97485.67;1740867;80;25705;-89
2021/10/05 00:06:14;;;;;;;21.30;12.40;;;;;;;10.39;74.85;97476.50;1716355;81;27451;-89
2021/10/05 00:08:40;;;;;;;16.93;13.00;;;;;;;10.40;74.87;97470.07;1745818;80;26578;-89
2021/10/05 00:11:07;;;;;;;16.30;12.65;;;;;;;10.38;74.85;97470.83;1717416;83;25944;-88
2021/10/05 00:13:34;;;;;;;16.67;12.65;;;;;;;10.37;74.88;97469.16;1746802;80;25760;-88
2021/10/05 00:16:00;;;;;;;15.95;11.68;;;;;;;10.37;74.96;97475.91;1695161;84;25738;-88
2021/10/05 00:18:27;;;;;;;15.40;12.10;;;;;;;10.30;74.97;97476.41;1686107;82;27465;-89
2021/10/05 00:20:53;;;;;;;18.07;13.05;;;;;;;10.27;74.90;97475.47;1723592;81;26447;-88
2021/10/05 00:23:20;;;;;;;17.57;12.53;;;;;;;10.26;75.03;97472.48;1686513;84;25781;-88
2021/10/05 00:25:47;;;;;;;17.12;12.55;;;;;;;10.20;74.91;97471.95;1693244;82;26336;-88
2021/10/05 00:28:13;;;;;;;15.23;10.88;;;;;;;10.17;74.97;97468.28;1724942;82;25708;-88
2021/10/05 00:30:40;;;;;;;14.75;11.08;;;;;;;10.13;74.99;97463.53;1732665;82;28047;-88
2021/10/05 00:33:07;;;;;;;18.05;11.43;;;;;;;10.10;75.07;97463.42;1710896;82;25765;-88
2021/10/05 00:35:33;;;;;;;17.00;12.35;;;;;;;10.09;75.09;97463.10;1727063;80;26389;-89
2021/10/05 00:38:00;;;;;;;17.95;12.45;;;;;;;10.06;75.09;97453.55;1720220;82;25846;-88
2021/10/05 00:40:27;;;;;;;17.57;12.33;;;;;;;10.03;75.17;97454.47;1733298;80;25896;-88
2021/10/05 00:42:54;;;;;;;17.37;12.82;;;;;;;9.97;75.30;97458.84;1702373;82;28216;-88
2021/10/05 00:45:21;;;;;;;19.32;12.53;;;;;;;9.92;75.42;97463.18;1714571;82;25861;-88
2021/10/05 00:47:48;;;;;;;14.55;12.18;;;;;;;9.92;75.49;97455.92;1701413;82;25813;-89
2021/10/05 00:50:15;;;;;;;16.07;12.55;;;;;;;9.87;75.33;97457.59;1728709;81;26439;-88
2021/10/05 00:52:43;;;;;;;19.85;12.30;;;;;;;9.84;75.41;97455.30;1702275;82;26290;-89
2021/10/05 00:55:11;;;;;;;21.70;12.65;;;;;;;9.83;75.43;97457.16;1743340;80;27473;-90
2021/10/05 00:57:38;;;;;;;15.68;11.95;;;;;;;9.80;75.39;97448.13;1701871;82;25785;-89
2021/10/05 01:00:08;;;;;;;15.88;11.35;;;;;;;9.74;75.42;97442.23;1684357;82;25793;-88
2021/10/05 01:02:35;;;;;;;18.82;11.93;;;;;;;9.74;75.56;97444.92;1732788;81;25750;-88
2021/10/05 01:05:01;;;;;;;15.10;11.10;;;;;;;9.72;75.50;97445.13;1715771;81;25740;-88
2021/10/05 01:07:28;;;;;;;15.65;11.53;;;;;;;9.64;75.43;97443.98;1730385;81;27389;-88
2021/10/05 01:09:56;;;;;;;18.10;12.20;;;;;;;9.62;75.58;97442.00;1732012;81;25861;-89
2021/10/05 01:12:22;;;;;;;22.40;12.10;;;;;;;9.63;75.63;97436.92;1718363;81;25887;-89
2021/10/05 01:14:49;;;;;;;18.80;12.37;;;;;;;9.61;75.67;97437.64;1749905;80;25878;-88
2021/10/05 01:17:16;;;;;;;18.50;12.78;;;;;;;9.59;75.65;97437.02;1729374;81;25898;-88
2021/10/05 01:19:42;;;;;;;21.50;12.80;;;;;;;9.58;75.73;97434.52;1706524;82;27558;-88
2021/10/05 01:22:09;;;;;;;24.67;13.70;;;;;;;9.53;75.82;97435.15;1721800;82;25820;-88
2021/10/05 01:24:36;;;;;;;19.00;13.00;;;;;;;9.54;75.98;97431.39;1732278;81;25853;-89
2021/10/05 01:27:03;;;;;;;17.60;12.15;;;;;;;9.51;75.87;97431.82;1736470;81;25812;-88
2021/10/05 01:29:32;;;;;;;21.17;12.88;;;;;;;9.45;75.77;97424.53;1737335;81;25967;-89
2021/10/05 01:32:03;;;;;;;25.43;12.37;;;;;;;9.41;75.81;97419.27;1735843;81;27386;-88
2021/10/05 01:34:30;;;;;;;19.30;12.82;;;;;;;9.37;75.84;97420.17;1735472;81;25821;-88
2021/10/05 01:36:58;;;;;;;18.87;12.80;;;;;;;9.34;75.85;97417.05;1735615;81;25739;-90
2021/10/05 01:39:32;;;;;;;21.55;12.93;;;;;;;9.28;75.95;97417.87;1723144;81;26143;-88
2021/10/05 01:42:04;;;;;;;22.60;12.93;;;;;;;9.26;76.09;97421.28;1736604;82;25802;-89
2021/10/05 01:44:31;;;;;;;19.75;12.63;;;;;;;9.28;76.19;97425.95;1723455;82;27446;-89
2021/10/05 01:46:57;;;;;;;19.05;12.70;;;;;;;9.28;76.20;97418.70;1719292;82;25697;-89
2021/10/05 01:49:24;;;;;;;21.07;12.73;;;;;;;9.30;76.20;97419.83;1728614;82;25824;-89
2021/10/05 01:51:52;;;;;;;24.07;14.25;;;;;;;9.29;76.14;97416.84;1707717;82;25819;-89
2021/10/05 01:54:19;;;;;;;23.40;14.63;;;;;;;9.28;76.11;97424.09;1723688;82;25786;-90
2021/10/05 01:56:47;;;;;;;21.70;14.00;;;;;;;9.29;76.17;97425.76;1728495;81;28059;-91
2021/10/05 01:59:14;;;;;;;21.12;13.08;;;;;;;9.29;76.10;97430.31;1737589;81;25750;-90
2021/10/05 02:01:41;;;;;;;20.70;12.35;;;;;;;9.29;76.09;97433.01;1736457;80;25777;-89
2021/10/05 02:04:09;;;;;;;20.25;12.98;;;;;;;9.27;76.14;97426.98;1735928;81;26478;-89
2021/10/05 02:06:41;;;;;;;19.37;13.43;;;;;;;9.25;76.16;97424.49;1707802;82;25367;-89
2021/10/05 02:09:09;;;;;;;19.50;12.78;;;;;;;9.27;76.24;97418.91;1717397;81;27374;-89
2021/10/05 02:11:36;;;;;;;20.50;12.80;;;;;;;9.26;76.38;97418.59;1731505;82;26019;-89
2021/10/05 02:14:04;;;;;;;22.22;12.90;;;;;;;9.24;76.46;97421.48;1719534;81;25859;-89
2021/10/05 02:16:32;;;;;;;17.23;12.55;;;;;;;9.23;76.43;97416.30;1732307;81;26451;-90
2021/10/05 02:18:59;;;;;;;20.32;13.25;;;;;;;9.22;76.52;97420.84;1737276;80;26181;-89
2021/10/05 02:21:26;;;;;;;17.37;12.65;;;;;;;9.22;76.51;97424.05;1735951;82;28293;-89
2021/10/05 02:24:41;;;;;;;19.65;13.20;;;;;;;9.16;76.51;97427.58;1716953;82;25812;-89
2021/10/05 02:26:36;;;;;;;21.65;13.78;;;;;;;9.16;76.64;97419.50;1691031;83;26095;-89
2021/10/05 02:29:04;;;;;;;17.40;12.45;;;;;;;9.17;76.66;97419.30;1728981;81;25842;-89
2021/10/05 02:31:30;;;;;;;23.85;16.07;;;;;;;9.18;76.57;97421.45;1695137;83;26526;-91
2021/10/05 02:33:57;;;;;;;28.83;17.00;;;;;;;9.10;76.56;97416.25;1698809;82;27405;-90
2021/10/05 02:36:24;;;;;;;22.98;16.77;;;;;;;9.03;76.80;97417.06;1701171;83;25811;-90
2021/10/05 02:38:51;;;;;;;23.95;15.40;;;;;;;9.02;76.99;97416.75;1723661;82;25948;-90
2021/10/05 02:41:18;;;;;;;22.58;14.23;;;;;;;8.98;77.10;97413.30;1727125;81;25676;-90
2021/10/05 02:43:44;;;;;;;20.25;14.45;;;;;;;8.95;77.19;97415.88;1713382;81;25702;-91
2021/10/05 02:46:11;;;;;;;23.00;14.93;;;;;;;8.97;77.28;97408.95;1702814;83;28287;-91
2021/10/05 02:48:38;;;;;;;23.30;15.25;;;;;;;8.95;77.29;97409.66;1725385;81;25999;-89
2021/10/05 02:51:04;;;;;;;20.48;14.35;;;;;;;8.90;77.34;97402.20;1694356;82;25737;-89
2021/10/05 02:53:31;;;;;;;23.05;14.33;;;;;;;8.92;77.43;97405.53;1690948;82;25767;-90
2021/10/05 02:55:57;;;;;;;21.10;13.68;;;;;;;8.95;77.36;97399.72;1700777;82;25771;-88
2021/10/05 02:58:24;;;;;;;18.15;12.37;;;;;;;8.98;77.22;97403.88;1705433;84;27375;-88
2021/10/05 03:00:51;;;;;;;20.62;13.43;;;;;;;8.97;77.09;97397.66;1726604;81;25820;-89
2021/10/05 03:03:17;;;;;;;23.73;14.05;;;;;;;8.97;77.04;97394.97;1706485;82;25272;-89
2021/10/05 03:05:44;;;;;;;23.65;13.40;;;;;;;8.99;77.06;97397.47;1708422;83;25908;-89
2021/10/05 03:08:10;;;;;;;21.20;13.25;;;;;;;8.99;77.04;97387.53;1699126;83;25857;-89
2021/10/05 03:10:37;;;;;;;23.85;14.68;;;;;;;9.00;77.03;97380.28;1701222;81;28049;-89
2021/10/05 03:13:05;;;;;;;25.35;14.73;;;;;;;9.00;76.96;97378.42;1698623;83;25953;-89
2021/10/05 03:15:32;;;;;;;21.77;13.70;;;;;;;9.00;76.92;97377.08;1721477;81;25611;-90
2021/10/05 03:17:59;;;;;;;23.85;13.53;;;;;;;9.00;76.87;97376.25;1712456;81;26165;-89
2021/10/05 03:20:26;;;;;;;22.17;13.25;;;;;;;8.98;76.79;97370.23;1702390;83;25745;-91
2021/10/05 03:22:52;;;;;;;23.95;13.72;;;;;;;8.94;76.74;97364.92;1711051;81;28177;-90
2021/10/05 03:25:19;;;;;;;21.82;13.75;;;;;;;8.89;76.66;97370.93;1699601;81;25760;-89
2021/10/05 03:27:45;;;;;;;25.23;14.00;;;;;;;8.88;76.83;97358.50;1716258;81;25782;-90
2021/10/05 03:30:13;;;;;;;22.22;14.45;;;;;;;8.88;76.85;97360.36;1703037;81;25711;-91
2021/10/05 03:32:39;;;;;;;24.12;14.83;;;;;;;8.86;76.91;97357.86;1706077;81;26417;-88
2021/10/05 03:35:06;;;;;;;22.95;13.60;;;;;;;8.85;76.97;97353.52;1744760;81;27382;-90
2021/10/05 03:37:33;;;;;;;25.70;13.10;;;;;;;8.86;76.93;97349.79;1710269;82;25923;-90
2021/10/05 03:40:00;;;;;;;24.32;12.98;;;;;;;8.86;76.90;97345.75;1748871;80;25782;-89
2021/10/05 03:42:27;;;;;;;20.90;12.78;;;;;;;8.83;76.85;97340.77;1730721;82;25911;-88
2021/10/05 03:44:54;;;;;;;16.75;12.33;;;;;;;8.81;76.88;97340.68;1737463;80;26079;-89
2021/10/05 03:47:20;;;;;;;16.67;12.23;;;;;;;8.79;76.87;97340.87;1708416;82;28081;-89
2021/10/05 03:49:47;;;;;;;23.70;12.43;;;;;;;8.74;76.92;97336.59;1727992;81;25777;-89
2021/10/05 03:52:13;;;;;;;16.45;11.60;;;;;;;8.73;76.98;97332.24;1694647;81;25855;-89
2021/10/05 03:54:42;;;;;;;20.62;11.45;;;;;;;8.75;77.00;97332.87;1701867;82;25738;-89
2021/10/05 03:57:09;;;;;;;21.07;12.93;;;;;;;8.77;76.97;97333.52;1726628;82;26416;-88
2021/10/05 03:59:35;;;;;;;22.65;12.68;;;;;;;8.75;76.99;97323.46;1749862;80;27397;-89
2021/10/05 04:02:02;;;;;;;19.87;12.73;;;;;;;8.68;76.93;97328.00;1730299;81;25712;-89
2021/10/05 04:04:29;;;;;;;17.82;12.05;;;;;;;8.59;76.93;97334.05;1738260;81;25792;-88
2021/10/05 04:06:55;;;;;;;16.45;11.28;;;;;;;8.55;77.07;97333.33;1731574;81;26527;-87
2021/10/05 04:09:22;;;;;;;19.00;11.70;;;;;;;8.58;77.23;97339.63;1739238;81;25695;-88
2021/10/05 04:11:50;;;;;;;17.62;11.65;;;;;;;8.57;77.19;97326.69;1737645;81;27358;-88
2021/10/05 04:14:17;;;;;;;20.48;12.23;;;;;;;8.58;77.22;97334.25;1739234;81;25294;-88
2021/10/05 04:16:43;;;;;;;17.85;13.13;;;;;;;8.57;77.14;97344.72;1739809;81;25800;-88
2021/10/05 04:19:10;;;;;;;17.92;12.40;;;;;;;8.56;77.28;97338.51;1717745;82;25877;-88
2021/10/05 04:21:37;;;;;;;15.38;10.70;;;;;;;8.55;77.30;97338.19;1739429;82;25740;-88
2021/10/05 04:24:04;;;;;;;19.45;12.20;;;;;;;8.50;77.16;97330.39;1739331;81;27333;-89
2021/10/05 04:26:31;;;;;;;19.02;12.30;;;;;;;8.44;77.17;97332.55;1735239;81;25876;-88
2021/10/05 04:28:57;;;;;;;18.65;11.97;;;;;;;8.43;77.30;97334.92;1727345;82;25821;-89
2021/10/05 04:31:24;;;;;;;16.85;12.23;;;;;;;8.45;77.42;97340.94;1719815;82;26372;-88
2021/10/05 04:33:51;;;;;;;18.12;12.78;;;;;;;8.43;77.33;97345.17;1732176;81;25710;-87
2021/10/05 04:36:17;;;;;;;22.65;12.63;;;;;;;8.39;77.37;97337.69;1724712;81;27352;-89
2021/10/05 04:38:44;;;;;;;15.28;11.63;;;;;;;8.39;77.35;97337.17;1719368;82;25767;-90
2021/10/05 04:41:10;;;;;;;19.50;11.18;;;;;;;8.38;77.40;97340.06;1720339;82;26394;-89
2021/10/05 04:43:37;;;;;;;21.80;12.33;;;;;;;8.40;77.46;97343.38;1697065;84;25982;-89
2021/10/05 04:46:04;;;;;;;18.00;12.37;;;;;;;8.43;77.53;97344.34;1726103;81;25791;-88
2021/10/05 04:48:30;;;;;;;20.80;11.83;;;;;;;8.44;77.50;97346.00;1727444;82;27398;-88
2021/10/05 04:50:57;;;;;;;23.20;12.70;;;;;;;8.44;77.47;97346.00;1708825;82;25692;-88
2021/10/05 04:53:23;;;;;;;21.10;12.93;;;;;;;8.39;77.44;97349.79;1712643;82;25823;-88
2021/10/05 04:55:50;;;;;;;22.05;13.32;;;;;;;8.34;77.67;97342.81;1705870;82;26456;-87
2021/10/05 04:58:16;;;;;;;31.40;14.90;;;;;;;8.37;77.77;97349.98;1703597;82;25259;-88
2021/10/05 05:00:43;;;;;;;32.03;15.38;;;;;;;8.38;77.64;97342.75;1704722;82;27369;-89
2021/10/05 05:03:10;;;;;;;25.02;14.13;;;;;;;8.34;77.44;97349.03;1704974;82;25799;-89
2021/10/05 05:05:36;;;;;;;31.02;14.73;;;;;;;8.27;77.47;97347.63;1713290;82;25739;-89
2021/10/05 05:08:04;;;;;;;33.38;17.05;;;;;;;8.28;77.64;97353.33;1708329;82;26163;-88
2021/10/05 05:10:31;;;;;;;42.30;19.05;;;;;;;8.33;77.73;97351.94;1702060;82;25782;-88
2021/10/05 05:12:58;;;;;;;38.35;19.62;;;;;;;8.37;77.80;97354.53;1702448;82;27516;-88
2021/10/05 05:15:25;;;;;;;45.58;23.73;;;;;;;8.36;77.78;97359.59;1725396;81;26369;-88
2021/10/05 05:17:52;;;;;;;49.45;23.73;;;;;;;8.38;77.83;97357.54;1724966;81;25896;-89
2021/10/05 05:20:19;;;;;;;44.05;24.47;;;;;;;8.36;77.82;97352.87;1724671;81;25907;-88
2021/10/05 05:22:46;;;;;;;47.62;22.48;;;;;;;8.30;77.86;97357.16;1717819;82;25743;-89
2021/10/05 05:25:13;;;;;;;42.43;22.17;;;;;;;8.28;78.00;97357.36;1718881;82;27607;-89
2021/10/05 05:27:40;;;;;;;42.67;21.93;;;;;;;8.30;78.11;97356.66;1737028;80;25855;-89
2021/10/05 05:30:08;;;;;;;42.03;23.80;;;;;;;8.34;78.25;97354.92;1751293;79;25729;-89
2021/10/05 05:32:35;;;;;;;46.70;25.30;;;;;;;8.38;78.34;97358.89;1760740;79;25913;-88
2021/10/05 05:35:03;;;;;;;45.70;25.45;;;;;;;8.44;78.41;97363.48;1763654;81;25835;-88
2021/10/05 05:37:29;;;;;;;57.40;28.23;;;;;;;8.46;78.47;97363.58;1760316;79;27392;-88
2021/10/05 05:39:56;;;;;;;52.05;27.25;;;;;;;8.49;78.41;97364.53;1758281;79;25813;-91
2021/10/05 05:42:22;;;;;;;50.55;28.52;;;;;;;8.49;78.36;97371.77;1754757;79;26293;-90
2021/10/05 05:44:51;;;;;;;50.03;27.67;;;;;;;8.50;78.49;97373.44;1763629;81;26911;-91
2021/10/05 05:47:17;;;;;;;41.95;24.90;;;;;;;8.47;78.67;97370.63;1763642;79;25702;-90
2021/10/05 05:49:44;;;;;;;52.60;26.05;;;;;;;8.51;78.90;97370.55;1763490;81;27687;-88
2021/10/05 05:52:11;;;;;;;39.92;25.23;;;;;;;8.54;79.07;97366.64;1763464;79;25747;-90
2021/10/05 05:54:37;;;;;;;35.73;21.65;;;;;;;8.59;79.28;97371.72;1759591;80;26514;-90
2021/10/05 05:57:04;;;;;;;34.98;19.98;;;;;;;8.66;79.46;97371.77;1759045;79;26266;-89
2021/10/05 05:59:30;;;;;;;38.00;21.20;;;;;;;8.70;79.59;97363.59;1755087;79;25797;-90
2021/10/05 06:01:57;;;;;;;40.40;21.65;;;;;;;8.77;79.69;97366.33;1739699;79;27537;-90
2021/10/05 06:04:23;;;;;;;35.98;19.12;;;;;;;8.82;79.63;97373.27;1751440;79;25721;-91
2021/10/05 06:06:50;;;;;;;35.70;19.05;;;;;;;8.88;79.73;97376.52;1751635;79;25777;-90
2021/10/05 06:09:17;;;;;;;28.42;19.48;;;;;;;8.94;79.67;97368.96;1756606;79;26368;-90
2021/10/05 06:11:44;;;;;;;33.35;20.27;;;;;;;9.01;79.65;97374.70;1754688;79;26437;-90
2021/10/05 06:14:10;;;;;;;37.45;20.45;;;;;;;9.09;79.64;97372.84;1751455;79;27582;-90
2021/10/05 06:16:37;;;;;;;37.42;19.85;;;;;;;9.16;79.66;97366.47;1759307;79;26423;-90
2021/10/05 06:19:03;;;;;;;37.30;21.40;;;;;;;9.24;79.66;97369.48;1755565;79;25776;-90
2021/10/05 06:21:30;;;;;;;36.42;19.75;;;;;;;9.31;79.67;97364.92;1755053;80;25978;-91
2021/10/05 06:23:56;;;;;;;40.12;21.97;;;;;;;9.37;79.70;97366.30;1751451;81;25703;-90
2021/10/05 06:26:23;;;;;;;36.30;22.25;;;;;;;9.44;79.70;97361.42;1744803;80;27528;-89
2021/10/05 06:28:49;;;;;;;36.20;20.62;;;;;;;9.52;79.78;97362.08;1730492;80;25823;-91
2021/10/05 06:31:16;;;;;;;37.70;22.30;;;;;;;9.58;79.77;97351.80;1740447;82;25795;-91
2021/10/05 06:33:42;;;;;;;32.75;19.77;;;;;;;9.67;79.91;97351.91;1732367;81;25735;-90
2021/10/05 06:36:09;;;;;;;38.00;20.35;;;;;;;9.77;80.04;97346.64;1743303;82;25750;-91
2021/10/05 06:38:36;;;;;;;26.37;18.40;;;;;;;9.88;80.15;97354.10;1736723;82;26967;-91
2021/10/05 06:41:03;;;;;;;24.92;18.75;;;;;;;9.98;80.31;97341.02;1736240;82;25771;-91
2021/10/05 06:43:29;;;;;;;30.43;19.32;;;;;;;10.07;80.33;97341.11;1726670;80;25819;-91
2021/10/05 06:45:57;;;;;;;27.58;18.73;;;;;;;10.18;80.45;97339.15;1731718;80;25809;-91
2021/10/05 06:48:24;;;;;;;32.42;20.32;;;;;;;10.29;80.50;97330.41;1737871;82;25748;-92
2021/10/05 06:50:50;;;;;;;30.15;17.62;;;;;;;10.41;80.77;97328.72;1716633;80;27421;-94
2021/10/05 06:53:17;;;;;;;27.17;18.12;;;;;;;10.52;80.72;97327.22;1724740;82;26385;-87
2021/10/05 06:55:46;;;;;;;27.98;17.48;;;;;;;10.64;80.82;97332.27;1719242;80;26426;-88
2021/10/05 06:58:13;;;;;;;25.00;17.07;;;;;;;10.78;80.87;97326.30;1717739;80;25808;-89
2021/10/05 07:00:40;;;;;;;27.95;17.20;;;;;;;10.92;80.75;97321.67;1715352;80;25704;-88
2021/10/05 07:03:07;;;;;;;23.12;17.42;;;;;;;11.05;80.60;97321.08;1735936;80;27413;-90
2021/10/05 07:05:33;;;;;;;23.60;17.40;;;;;;;11.23;80.55;97312.78;1745023;80;25884;-88
2021/10/05 07:08:07;;;;;;;26.75;17.90;;;;;;;11.41;80.49;97316.91;1740903;81;25810;-89
2021/10/05 07:10:36;;;;;;;22.65;16.02;;;;;;;11.62;80.49;97307.07;1693964;82;26369;-91
2021/10/05 07:13:04;;;;;;;20.95;14.75;;;;;;;11.87;80.46;97300.34;1732421;82;25725;-90
2021/10/05 07:15:31;;;;;;;25.02;15.23;;;;;;;12.09;80.15;97292.63;1721483;82;27226;-90
2021/10/05 07:17:59;;;;;;;21.62;15.15;;;;;;;12.32;79.95;97296.86;1733625;82;25739;-89
2021/10/05 07:20:28;;;;;;;20.68;15.00;;;;;;;12.53;79.75;97293.73;1728114;81;25705;-89
2021/10/05 07:22:56;;;;;;;19.85;14.78;;;;;;;12.77;79.67;97289.80;1717836;82;25728;-89
2021/10/05 07:25:23;;;;;;;21.75;14.80;;;;;;;13.01;79.55;97279.36;1723802;82;25480;-88
2021/10/05 07:27:51;;;;;;;20.62;14.60;;;;;;;13.25;79.33;97274.36;1707563;82;27565;-89
2021/10/05 07:30:23;;;;;;;21.57;14.35;;;;;;;13.49;79.13;97264.39;1752562;79;25800;-88
2021/10/05 07:32:53;;;;;;;;;;;;;;;13.76;78.97;97263.43;1756526;81;26439;-91
2021/10/05 07:35:20;;;;;;;20.88;13.78;;;;;;;14.04;78.67;97261.34;1753654;81;25790;-91
2021/10/05 07:37:48;;;;;;;18.92;14.18;;;;;;;14.33;78.29;97264.98;1757065;79;25778;-91
2021/10/05 07:40:16;;;;;;;23.85;14.20;;;;;;;14.66;77.79;97261.11;1755783;79;27449;-90
2021/10/05 07:42:43;;;;;;;21.73;13.45;;;;;;;14.87;77.11;97261.50;1756738;81;25936;-90
2021/10/05 07:45:10;;;;;;;20.45;12.53;;;;;;;15.19;76.92;97257.78;1754702;79;25749;-90
2021/10/05 07:47:37;;;;;;;15.30;11.90;;;;;;;15.46;76.43;97256.89;1761709;79;26648;-90
2021/10/05 07:50:05;;;;;;;16.02;11.18;;;;;;;15.80;76.33;97252.88;1761618;79;25705;-90
2021/10/05 07:52:31;;;;;;;14.58;11.12;;;;;;;16.15;75.67;97245.24;1758220;81;27385;-90
2021/10/05 07:54:58;;;;;;;15.70;11.40;;;;;;;16.46;75.07;97243.75;1756452;79;26089;-90
2021/10/05 07:57:25;;;;;;;14.75;11.38;;;;;;;16.77;74.92;97236.83;1761847;81;25318;-90
2021/10/05 07:59:52;;;;;;;14.40;10.40;;;;;;;17.15;74.39;97238.58;1759737;79;25658;-90
2021/10/05 08:02:19;;;;;;;13.98;11.10;;;;;;;17.53;73.82;97234.85;1762187;79;25818;-89
2021/10/05 08:04:46;;;;;;;14.63;10.45;;;;;;;17.87;73.18;97231.91;1754555;79;28325;-90
2021/10/05 08:07:12;;;;;;;18.02;10.63;;;;;;;18.06;71.99;97233.12;1757715;79;25792;-88
2021/10/05 08:09:39;;;;;;;13.78;11.10;;;;;;;18.21;71.92;97225.03;1749021;79;25725;-89
2021/10/05 08:12:06;;;;;;;16.07;11.97;;;;;;;18.43;71.65;97229.50;1743142;81;25677;-90
2021/10/05 08:14:33;;;;;;;15.53;11.63;;;;;;;18.67;71.80;97230.75;1753979;79;25309;-88
2021/10/05 08:17:00;;;;;;;13.35;10.35;;;;;;;18.96;71.36;97233.84;1758164;81;27463;-89
2021/10/05 08:19:27;;;;;;;14.55;10.32;;;;;;;19.19;70.78;97224.34;1760428;79;26505;-89
2021/10/05 08:21:54;;;;;;;14.40;10.80;;;;;;;19.39;70.15;97226.56;1750687;79;26447;-89
2021/10/05 08:24:22;;;;;;;14.95;9.98;;;;;;;19.57;69.54;97222.48;1754993;79;25723;-88
2021/10/05 08:26:48;;;;;;;14.63;10.15;;;;;;;19.76;69.12;97208.55;1754485;79;25810;-88
2021/10/05 08:29:18;;;;;;;12.68;9.20;;;;;;;19.92;68.93;97207.98;1741881;80;27424;-87
2021/10/05 08:31:44;;;;;;;11.40;8.83;;;;;;;20.08;68.48;97199.17;1724310;80;26438;-92
2021/10/05 08:34:10;;;;;;;11.60;8.33;;;;;;;20.30;68.01;97204.33;1703450;84;25327;-87
2021/10/05 08:36:37;;;;;;;11.45;8.33;;;;;;;20.45;67.73;97205.14;1734237;82;25766;-90
2021/10/05 08:39:03;;;;;;;9.88;7.92;;;;;;;20.68;67.47;97208.34;1725879;83;25737;-88
2021/10/05 08:41:30;;;;;;;9.08;7.95;;;;;;;20.88;66.83;97201.97;1751400;80;27404;-88
2021/10/05 08:43:59;;;;;;;10.15;8.60;;;;;;;20.99;66.43;97204.37;1720125;83;26177;-88
2021/10/05 08:46:29;;;;;;;9.70;8.18;;;;;;;21.13;66.16;97199.88;1737328;80;25741;-87
2021/10/05 08:48:57;;;;;;;11.88;9.30;;;;;;;21.25;65.46;97211.94;1714435;83;26177;-87
2021/10/05 08:51:24;;;;;;;35.23;27.65;;;;;;;21.36;65.13;97203.91;1739331;81;25248;-87
2021/10/05 08:53:51;;;;;;;35.15;25.40;;;;;;;21.49;64.73;97196.95;1689044;84;27423;-85
2021/10/05 08:56:18;;;;;;;31.52;21.80;;;;;;;21.62;64.55;97196.27;1689631;82;25849;-88
2021/10/05 08:58:44;;;;;;;33.60;24.02;;;;;;;21.81;64.19;97197.22;1721081;81;25728;-86
2021/10/05 09:01:17;;;;;;;27.02;19.23;;;;;;;21.81;64.19;97197.22;1744253;80;25747;-89
2021/10/05 09:03:51;;;;;;;19.77;13.53;;;;;;;21.85;63.66;97201.05;1696384;82;25762;-86
2021/10/05 09:06:21;;;;;;;14.53;10.50;;;;;;;21.96;63.21;97205.06;1725451;82;27394;-85
2021/10/05 09:08:50;;;;;;;18.02;10.68;;;;;;;22.05;62.94;97207.48;1687855;84;25831;-85
2021/10/05 09:11:20;;;;;;;18.45;11.20;;;;;;;22.03;62.68;97209.69;1725761;82;25668;-85
2021/10/05 09:13:54;;;;;;;17.98;11.68;;;;;;;22.03;62.79;97206.94;1708297;81;25757;-86
2021/10/05 09:16:30;;;;;;;18.90;11.83;;;;;;;22.02;62.51;97205.30;1750715;80;26321;-86
2021/10/05 09:19:15;;;;;;;12.03;9.48;;;;;;;22.08;62.35;97209.66;1724078;83;27389;-88
2021/10/05 09:21:56;;;;;;;16.02;9.80;;;;;;;22.15;62.22;97208.19;1736554;80;25748;-87
2021/10/05 09:24:28;;;;;;;14.18;10.18;;;;;;;22.16;62.18;97209.84;1698049;82;25750;-86
2021/10/05 09:27:00;;;;;;;16.17;9.68;;;;;;;22.28;61.84;97198.44;1732239;81;26547;-88
2021/10/05 09:29:33;;;;;;;12.98;9.90;;;;;;;22.38;61.64;97197.50;1721975;82;25746;-84
2021/10/05 09:32:13;;;;;;;14.20;10.08;;;;;;;22.53;61.27;97189.91;1728427;81;28921;-86
2021/10/05 09:34:59;;;;;;;15.75;9.68;;;;;;;22.53;61.27;97189.91;1716558;82;26310;-86
2021/10/05 09:37:34;;;;;;;18.35;10.05;;;;;;;22.81;61.14;97209.42;1717430;81;25778;-87
2021/10/05 09:40:11;;;;;;;13.30;9.75;;;;;;;22.95;60.67;97208.38;1718835;83;26555;-86
2021/10/05 09:42:45;;;;;;;15.45;9.60;;;;;;;23.02;60.73;97195.64;1715519;83;25545;-86
2021/10/05 09:45:29;;;;;;;14.07;9.10;;;;;;;23.13;60.44;97194.39;1722586;81;27446;-86
2021/10/05 09:47:58;;;;;;;14.85;9.50;;;;;;;23.23;60.64;97194.23;1716198;81;25691;-86
2021/10/05 09:50:32;;;;;;;9.38;8.38;;;;;;;23.35;60.25;97195.98;1719880;83;25815;-85
2021/10/05 09:53:08;;;;;;;14.55;8.83;;;;;;;23.45;59.63;97199.69;1714954;81;25813;-87
2021/10/05 09:55:39;;;;;;;13.25;7.55;;;;;;;23.56;59.60;97191.55;1722411;83;26496;-86
2021/10/05 09:58:07;;;;;;;15.40;7.78;;;;;;;23.67;59.34;97191.65;1717799;83;27330;-85
2021/10/05 10:00:37;;;;;;;11.50;7.58;;;;;;;23.79;59.46;97182.35;1720756;81;25778;-86
2021/10/05 10:03:06;;;;;;;11.03;8.68;;;;;;;23.92;59.30;97169.17;1722677;83;26155;-84
2021/10/05 10:05:37;;;;;;;9.63;7.50;;;;;;;24.03;58.69;97170.63;1718374;83;25932;-86
2021/10/05 10:08:04;;;;;;;10.45;7.58;;;;;;;24.11;58.26;97171.06;1709440;83;26520;-85
2021/10/05 10:10:34;;;;;;;12.80;7.37;;;;;;;24.20;57.88;97166.47;1719156;83;28036;-86
2021/10/05 10:13:11;;;;;;;10.45;7.28;;;;;;;24.24;57.58;97162.84;1718554;83;25859;-94
2021/10/05 10:15:42;;;;;;;9.13;7.35;;;;;;;24.31;56.92;97163.25;1718544;82;25732;-87
2021/10/05 10:18:12;;;;;;;10.55;7.25;;;;;;;24.41;56.60;97158.08;1712342;81;26447;-87
2021/10/05 10:20:42;;;;;;;7.97;7.17;;;;;;;24.47;56.18;97166.53;1714951;81;25721;-88
2021/10/05 10:23:24;;;;;;;13.05;7.87;;;;;;;24.51;55.17;97164.80;1714076;82;27023;-93
2021/10/05 10:25:59;;;;;;;7.90;7.10;;;;;;;24.56;54.82;97152.27;1718574;81;25717;-89
2021/10/05 10:28:36;;;;;;;7.97;6.58;;;;;;;24.59;54.31;97153.04;1724623;81;25697;-87
2021/10/05 10:31:06;;;;;;;8.23;6.78;;;;;;;24.66;54.29;97153.43;1719153;83;25752;-87
2021/10/05 10:33:50;;;;;;;9.53;6.78;;;;;;;24.72;53.84;97164.63;1714322;81;25839;-89
2021/10/05 10:36:44;;;;;;;12.43;6.95;;;;;;;24.73;53.31;97160.75;1711572;82;27474;-87
2021/10/05 10:39:14;;;;;;;13.50;7.78;;;;;;;24.71;52.89;97156.09;1721367;81;25770;-88
2021/10/05 10:41:55;;;;;;;13.03;7.67;;;;;;;24.72;52.43;97159.67;1717004;83;26361;-86
2021/10/05 10:44:38;;;;;;;8.85;7.37;;;;;;;24.74;52.57;97151.91;1726739;83;26490;-87
2021/10/05 10:47:10;;;;;;;12.75;8.13;;;;;;;24.75;52.22;97143.29;1714929;81;25689;-86
2021/10/05 10:49:37;;;;;;;11.88;8.18;;;;;;;24.74;52.24;97136.16;1720734;81;28310;-88
2021/10/05 10:52:05;;;;;;;10.28;7.55;;;;;;;24.75;52.01;97135.61;1719604;82;25789;-90
2021/10/05 10:54:32;;;;;;;10.90;7.35;;;;;;;24.78;51.72;97122.55;1718679;81;25854;-86
2021/10/05 10:57:06;;;;;;;11.90;8.85;;;;;;;24.82;51.56;97117.23;1701780;82;25746;-86
2021/10/05 10:59:33;;;;;;;11.15;8.15;;;;;;;24.86;51.28;97109.97;1702003;83;25789;-87
2021/10/05 11:02:03;;;;;;;12.20;8.08;;;;;;;24.94;51.14;97112.02;1697206;82;27374;-87
2021/10/05 11:04:31;;;;;;;9.08;7.70;;;;;;;24.94;50.33;97110.08;1716946;81;25731;-85
2021/10/05 11:06:58;;;;;;;13.90;8.25;;;;;;;24.91;50.15;97105.70;1704733;83;25972;-87
2021/10/05 11:09:34;;;;;;;12.03;7.83;;;;;;;24.92;50.32;97110.91;1714079;81;26741;-87
2021/10/05 11:12:08;;;;;;;8.58;7.55;;;;;;;25.00;50.21;97102.47;1711859;81;25725;-88
2021/10/05 11:14:40;;;;;;;9.70;7.58;;;;;;;25.07;49.60;97100.12;1704023;83;27389;-85
2021/10/05 11:17:10;;;;;;;11.53;7.63;;;;;;;25.12;49.62;97097.22;1701616;83;25775;-86
2021/10/05 11:19:41;;;;;;;14.93;8.08;;;;;;;25.15;49.57;97091.64;1713240;81;26298;-87
2021/10/05 11:22:12;;;;;;;14.53;7.97;;;;;;;25.19;49.34;97078.84;1720031;81;26398;-87
2021/10/05 11:24:45;;;;;;;11.48;7.55;;;;;;;25.26;49.31;97074.51;1718273;81;25315;-87
2021/10/05 11:27:24;;;;;;;12.18;8.23;;;;;;;25.26;48.95;97064.84;1724344;81;27391;-87
2021/10/05 11:29:54;;;;;;;10.35;8.13;;;;;;;25.30;48.89;97066.42;1725905;81;25782;-87